createdAt,value
2023-09-07T00:02:43.230Z,7.50
2023-09-07T00:06:08.065Z,6.70
2023-09-07T00:09:32.155Z,6.60
2023-09-07T00:13:05.724Z,7.50
2023-09-07T00:16:51.175Z,7.10
2023-09-07T00:20:32.718Z,7.30
2023-09-07T00:24:06.417Z,7.20
2023-09-07T00:27:32.752Z,7.50
2023-09-07T00:31:17.928Z,7.50
2023-09-07T00:34:47.446Z,7.70
2023-09-07T00:38:05.247Z,7.90
2023-09-07T00:41:48.808Z,8.20
2023-09-07T00:45:06.744Z,8.40
2023-09-07T00:48:35.088Z,8.70
2023-09-07T00:51:57.216Z,8.40
2023-09-07T00:55:29.419Z,7.70
2023-09-07T00:58:49.204Z,8.40
2023-09-07T01:01:46.190Z,7.80
2023-09-07T01:04:28.222Z,8.60
2023-09-07T01:07:29.797Z,8.90
2023-09-07T01:10:12.086Z,9.00
2023-09-07T01:12:53.746Z,9.80
2023-09-07T01:15:35.268Z,9.00
2023-09-07T01:18:38.560Z,8.80
2023-09-07T01:21:22.483Z,8.00
2023-09-07T01:24:07.992Z,8.70
2023-09-07T01:26:50.126Z,8.40
2023-09-07T01:29:32.232Z,7.70
2023-09-07T01:32:14.171Z,7.80
2023-09-07T01:34:58.647Z,8.20
2023-09-07T01:37:40.228Z,7.30
2023-09-07T01:40:21.739Z,7.80
2023-09-07T01:43:04.327Z,7.70
2023-09-07T01:45:45.773Z,8.30
2023-09-07T01:48:27.528Z,8.90
2023-09-07T01:51:09.405Z,8.20
2023-09-07T01:53:50.891Z,9.30
2023-09-07T01:56:32.451Z,8.00
2023-09-07T01:59:14.485Z,8.80
2023-09-07T02:01:56.071Z,9.00
2023-09-07T02:04:37.859Z,9.00
2023-09-07T02:07:19.360Z,8.60
2023-09-07T02:10:03.712Z,8.90
2023-09-07T02:12:47.312Z,8.60
2023-09-07T02:15:28.896Z,9.30
2023-09-07T02:18:10.419Z,9.50
2023-09-07T02:20:52.317Z,9.00
2023-09-07T02:23:33.832Z,9.60
2023-09-07T02:26:15.411Z,9.90
2023-09-07T02:28:57.447Z,9.70
2023-09-07T02:31:40.656Z,8.70
2023-09-07T02:34:22.728Z,9.60
2023-09-07T02:37:04.988Z,10.20
2023-09-07T02:39:46.615Z,9.10
2023-09-07T02:42:28.113Z,9.40
2023-09-07T02:45:12.873Z,9.70
2023-09-07T02:47:54.628Z,9.20
2023-09-07T02:50:36.412Z,9.90
2023-09-07T02:56:04.490Z,9.70
2023-09-07T02:58:46.433Z,9.20
2023-09-07T03:01:29.376Z,9.30
2023-09-07T03:04:11.213Z,11.00
2023-09-07T03:06:52.691Z,11.20
2023-09-07T03:09:34.258Z,10.40
2023-09-07T03:12:15.683Z,12.20
2023-09-07T03:14:57.654Z,11.80
2023-09-07T03:17:39.130Z,12.30
2023-09-07T03:20:21.170Z,10.50
2023-09-07T03:23:04.699Z,11.20
2023-09-07T03:25:46.138Z,10.90
2023-09-07T03:28:27.922Z,11.60
2023-09-07T03:31:09.502Z,10.90
2023-09-07T03:33:51.100Z,11.10
2023-09-07T03:39:15.272Z,11.00
2023-09-07T03:41:57.005Z,10.90
2023-09-07T03:44:40.029Z,11.10
2023-09-07T03:50:03.656Z,9.30
2023-09-07T03:52:46.181Z,11.80
2023-09-07T03:55:28.012Z,11.30
2023-09-07T03:58:10.999Z,9.10
2023-09-07T04:00:52.680Z,10.90
2023-09-07T04:03:34.301Z,10.20
2023-09-07T04:06:15.989Z,10.90
2023-09-07T04:08:57.560Z,10.90
2023-09-07T04:11:39.156Z,10.80
2023-09-07T04:14:22.137Z,10.40
2023-09-07T04:17:03.993Z,10.60
2023-09-07T04:19:45.586Z,11.20
2023-09-07T04:22:27.284Z,11.30
2023-09-07T04:25:09.243Z,11.50
2023-09-07T04:27:51.047Z,11.60
2023-09-07T04:30:37.950Z,11.20
2023-09-07T04:33:19.898Z,11.50
2023-09-07T04:36:12.897Z,10.70
2023-09-07T04:38:55.066Z,10.90
2023-09-07T04:41:36.817Z,10.40
2023-09-07T04:44:18.530Z,11.40
2023-09-07T04:47:00.455Z,10.40
2023-09-07T04:49:42.894Z,11.10
2023-09-07T04:52:24.633Z,11.70
2023-09-07T04:55:07.217Z,11.70
2023-09-07T04:57:49.854Z,11.40
2023-09-07T05:00:31.368Z,11.70
2023-09-07T05:03:13.071Z,11.30
2023-09-07T05:05:54.943Z,11.30
2023-09-07T05:08:36.490Z,11.30
2023-09-07T05:11:17.976Z,11.80
2023-09-07T05:13:59.607Z,10.70
2023-09-07T05:16:44.884Z,11.80
2023-09-07T05:19:27.662Z,11.10
2023-09-07T05:22:09.170Z,12.60
2023-09-07T05:24:50.763Z,12.30
2023-09-07T05:27:32.475Z,12.70
2023-09-07T05:30:14.179Z,11.60
2023-09-07T05:32:55.802Z,11.90
2023-09-07T05:35:38.077Z,14.60
2023-09-07T05:38:20.887Z,14.50
2023-09-07T05:41:02.405Z,15.10
2023-09-07T05:43:43.927Z,14.40
2023-09-07T05:46:25.576Z,14.70
2023-09-07T05:49:07.336Z,16.70
2023-09-07T05:51:48.941Z,17.00
2023-09-07T05:54:30.654Z,22.90
2023-09-07T05:57:12.874Z,24.40
2023-09-07T05:59:54.978Z,23.20
2023-09-07T06:02:38.057Z,24.80
2023-09-07T06:05:20.020Z,25.90
2023-09-07T06:08:04.547Z,26.20
2023-09-07T06:10:46.289Z,28.80
2023-09-07T06:13:28.014Z,28.10
2023-09-07T06:17:44.714Z,29.10
2023-09-07T06:20:28.946Z,25.20
2023-09-07T06:23:14.179Z,25.70
2023-09-07T06:25:57.298Z,25.40
2023-09-07T06:28:40.362Z,25.30
2023-09-07T06:31:24.269Z,23.20
2023-09-07T06:34:07.379Z,22.50
2023-09-07T06:36:50.231Z,20.80
2023-09-07T06:39:36.815Z,21.10
2023-09-07T06:42:19.905Z,21.10
2023-09-07T06:45:09.200Z,18.60
2023-09-07T06:47:52.473Z,17.30
2023-09-07T06:50:38.324Z,16.90
2023-09-07T06:53:21.645Z,15.60
2023-09-07T06:56:05.755Z,14.40
2023-09-07T06:58:48.944Z,16.70
2023-09-07T07:01:31.927Z,14.60
2023-09-07T07:04:15.233Z,14.70
2023-09-07T07:06:58.349Z,13.80
2023-09-07T07:09:41.580Z,13.40
2023-09-07T07:12:24.678Z,13.20
2023-09-07T07:15:08.577Z,13.10
2023-09-07T07:17:51.879Z,13.40
2023-09-07T07:20:45.315Z,11.30
2023-09-07T07:23:28.719Z,11.60
2023-09-07T07:26:11.964Z,11.50
2023-09-07T07:28:55.202Z,12.50
2023-09-07T07:31:39.837Z,11.80
2023-09-07T07:34:22.830Z,11.20
2023-09-07T07:37:05.809Z,12.00
2023-09-07T07:39:49.291Z,10.70
2023-09-07T07:42:33.754Z,11.20
2023-09-07T07:45:20.859Z,11.30
2023-09-07T07:48:06.562Z,10.90
2023-09-07T07:50:49.625Z,10.70
2023-09-07T07:53:33.599Z,9.70
2023-09-07T07:56:19.087Z,11.00
2023-09-07T07:59:04.493Z,10.90
2023-09-07T08:01:47.871Z,10.30
2023-09-07T08:04:33.591Z,10.30
2023-09-07T08:07:16.990Z,9.80
2023-09-07T08:10:00.597Z,9.60
2023-09-07T08:12:45.599Z,9.90
2023-09-07T08:15:28.909Z,9.60
2023-09-07T08:18:12.397Z,10.30
2023-09-07T08:20:56.441Z,9.50
2023-09-07T08:23:39.382Z,10.90
2023-09-07T08:26:22.970Z,10.70
2023-09-07T08:29:07.367Z,10.30
2023-09-07T08:31:51.620Z,10.30
2023-09-07T08:34:37.247Z,9.60
2023-09-07T08:37:24.433Z,8.90
2023-09-07T08:40:09.920Z,8.50
2023-09-07T08:42:53.571Z,7.50
2023-09-07T08:46:00.701Z,9.10
2023-09-07T08:48:45.302Z,8.30
2023-09-07T08:51:32.713Z,7.70
2023-09-07T08:54:15.676Z,7.70
2023-09-07T08:56:59.652Z,6.90
2023-09-07T08:59:42.782Z,6.20
2023-09-07T09:02:25.875Z,7.20
2023-09-07T09:05:11.870Z,7.50
2023-09-07T09:08:05.654Z,7.10
2023-09-07T09:10:48.916Z,7.10
2023-09-07T09:13:33.375Z,7.10
2023-09-07T09:16:17.960Z,6.40
2023-09-07T09:19:01.120Z,6.60
2023-09-07T09:21:46.702Z,5.80
2023-09-07T09:24:34.195Z,5.60
2023-09-07T09:27:18.588Z,5.60
2023-09-07T09:30:01.761Z,4.60
2023-09-07T09:32:45.326Z,4.30
2023-09-07T09:35:28.536Z,4.50
2023-09-07T09:38:14.569Z,5.00
2023-09-07T09:40:57.649Z,4.80
2023-09-07T09:43:41.296Z,4.50
2023-09-07T09:46:26.231Z,4.50
2023-09-07T09:49:09.821Z,4.20
2023-09-07T09:51:52.735Z,4.80
2023-09-07T09:54:37.308Z,4.20
2023-09-07T09:57:21.178Z,3.90
2023-09-07T10:00:18.583Z,4.60
2023-09-07T10:03:13.866Z,4.40
2023-09-07T10:05:57.558Z,4.10
2023-09-07T10:08:40.652Z,5.10
2023-09-07T10:11:34.768Z,4.10
2023-09-07T10:14:18.157Z,4.60
2023-09-07T10:17:05.297Z,4.30
2023-09-07T10:19:53.517Z,4.10
2023-09-07T10:22:36.512Z,4.20
2023-09-07T10:25:24.142Z,4.30
2023-09-07T10:28:26.024Z,4.40
2023-09-07T10:31:15.658Z,4.20
2023-09-07T10:34:10.699Z,4.30
2023-09-07T10:36:57.904Z,3.70
2023-09-07T10:39:44.339Z,5.10
2023-09-07T10:42:28.176Z,4.80
2023-09-07T10:45:19.249Z,4.20
2023-09-07T10:48:05.278Z,5.30
2023-09-07T10:50:48.861Z,4.80
2023-09-07T10:53:33.697Z,5.10
2023-09-07T10:56:16.831Z,4.30
2023-09-07T10:59:00.549Z,4.80
2023-09-07T11:01:45.805Z,3.80
2023-09-07T11:04:29.103Z,5.20
2023-09-07T11:07:14.270Z,4.40
2023-09-07T11:09:57.268Z,4.20
2023-09-07T11:12:41.493Z,4.00
2023-09-07T11:15:24.902Z,4.90
2023-09-07T11:18:08.505Z,4.40
2023-09-07T11:20:53.382Z,4.00
2023-09-07T11:23:39.709Z,4.30
2023-09-07T11:26:23.016Z,5.00
2023-09-07T11:29:05.915Z,4.50
2023-09-07T11:31:49.029Z,4.70
2023-09-07T11:34:31.982Z,4.40
2023-09-07T11:37:14.859Z,3.90
2023-09-07T11:39:57.898Z,4.80
2023-09-07T11:42:42.458Z,4.30
2023-09-07T11:45:27.061Z,4.10
2023-09-07T11:48:11.591Z,4.60
2023-09-07T11:50:54.608Z,5.00
2023-09-07T11:53:37.489Z,4.60
2023-09-07T11:56:20.640Z,4.20
2023-09-07T11:59:03.656Z,5.00
2023-09-07T12:01:46.682Z,6.60
2023-09-07T12:04:30.242Z,5.20
2023-09-07T12:07:13.677Z,4.10
2023-09-07T12:09:58.679Z,4.20
2023-09-07T12:12:42.784Z,4.60
2023-09-07T12:15:25.787Z,4.70
2023-09-07T12:18:09.365Z,4.00
2023-09-07T12:20:52.547Z,4.50
2023-09-07T12:23:35.505Z,4.10
2023-09-07T12:26:20.899Z,5.00
2023-09-07T12:29:03.838Z,5.20
2023-09-07T12:31:47.123Z,4.30
2023-09-07T12:34:32.669Z,4.30
2023-09-07T12:37:16.100Z,4.60
2023-09-07T12:39:59.142Z,4.30
2023-09-07T12:42:43.930Z,4.10
2023-09-07T12:45:26.946Z,4.30
2023-09-07T12:48:10.722Z,4.90
2023-09-07T12:50:55.687Z,4.50
2023-09-07T12:53:38.612Z,4.70
2023-09-07T12:56:21.546Z,5.20
2023-09-07T12:59:04.859Z,4.20
2023-09-07T13:01:48.738Z,4.20
2023-09-07T13:04:32.037Z,4.80
2023-09-07T13:07:15.210Z,4.40
2023-09-07T13:09:58.104Z,4.30
2023-09-07T13:12:42.657Z,4.40
2023-09-07T13:15:25.818Z,5.40
2023-09-07T13:18:09.157Z,4.30
2023-09-07T13:21:00.730Z,3.80
2023-09-07T13:23:43.977Z,4.10
2023-09-07T13:26:27.066Z,4.00
2023-09-07T13:29:10.036Z,4.60
2023-09-07T13:31:54.892Z,4.30
2023-09-07T13:34:37.844Z,4.80
2023-09-07T13:37:20.662Z,4.30
2023-09-07T13:40:04.116Z,4.00
2023-09-07T13:42:49.563Z,4.30
2023-09-07T13:45:32.925Z,4.90
2023-09-07T13:48:16.012Z,4.80
2023-09-07T13:50:59.033Z,3.70
2023-09-07T13:53:41.887Z,4.30
2023-09-07T13:56:24.751Z,4.10
2023-09-07T13:59:07.773Z,4.20
2023-09-07T14:01:53.179Z,4.10
2023-09-07T14:04:36.407Z,4.20
2023-09-07T14:07:19.793Z,4.10
2023-09-07T14:10:02.936Z,5.00
2023-09-07T14:12:48.183Z,4.60
2023-09-07T14:15:31.502Z,4.50
2023-09-07T14:18:14.563Z,4.80
2023-09-07T14:21:02.196Z,4.40
2023-09-07T14:23:46.454Z,4.00
2023-09-07T14:26:29.696Z,4.70
2023-09-07T14:29:12.566Z,4.70
2023-09-07T14:31:55.593Z,4.00
2023-09-07T14:34:39.807Z,5.30
2023-09-07T14:37:22.842Z,3.90
2023-09-07T14:40:09.004Z,4.20
2023-09-07T14:42:51.923Z,4.10
2023-09-07T14:45:34.901Z,4.10
2023-09-07T14:48:17.874Z,4.00
2023-09-07T14:51:00.721Z,4.20
2023-09-07T14:53:47.210Z,4.30
2023-09-07T14:56:31.917Z,4.00
2023-09-07T14:59:15.277Z,4.90
2023-09-07T15:02:04.315Z,3.50
2023-09-07T15:04:48.421Z,3.70
2023-09-07T15:07:32.890Z,3.80
2023-09-07T15:10:15.820Z,4.20
2023-09-07T15:12:58.811Z,3.80
2023-09-07T15:15:42.052Z,4.60
2023-09-07T15:18:25.305Z,4.80
2023-09-07T15:21:08.403Z,3.80
2023-09-07T15:23:51.291Z,4.60
2023-09-07T15:26:43.638Z,4.20
2023-09-07T15:29:26.739Z,4.70
2023-09-07T15:32:09.879Z,4.30
2023-09-07T15:34:52.944Z,4.30
2023-09-07T15:37:36.269Z,4.40
2023-09-07T15:40:19.149Z,4.50
2023-09-07T15:43:02.332Z,4.80
2023-09-07T15:45:46.596Z,4.10
2023-09-07T15:48:29.826Z,4.40
2023-09-07T15:51:14.708Z,4.40
2023-09-07T15:53:58.710Z,3.90
2023-09-07T15:56:43.037Z,4.50
2023-09-07T15:59:25.955Z,4.30
2023-09-07T16:02:08.938Z,4.30
2023-09-07T16:04:53.154Z,4.60
2023-09-07T16:07:36.165Z,4.30
2023-09-07T16:10:19.133Z,4.40
2023-09-07T16:13:02.020Z,4.50
2023-09-07T16:15:46.033Z,4.20
2023-09-07T16:18:30.503Z,4.30
2023-09-07T16:21:16.821Z,4.30
2023-09-07T16:23:59.922Z,4.60
2023-09-07T16:26:42.966Z,4.20
2023-09-07T16:29:26.091Z,3.80
2023-09-07T16:32:13.054Z,4.70
2023-09-07T16:34:56.854Z,4.70
2023-09-07T16:37:42.106Z,5.60
2023-09-07T16:40:25.275Z,4.60
2023-09-07T16:43:08.288Z,4.80
2023-09-07T16:46:02.016Z,5.40
2023-09-07T16:48:45.021Z,4.60
2023-09-07T16:51:28.587Z,6.10
2023-09-07T16:54:12.647Z,5.20
2023-09-07T16:56:55.585Z,6.40
2023-09-07T16:59:56.072Z,6.40
2023-09-07T17:02:40.151Z,7.50
2023-09-07T17:05:23.525Z,7.50
2023-09-07T17:08:07.624Z,6.60
2023-09-07T17:10:50.467Z,6.60
2023-09-07T17:13:34.161Z,7.80
2023-09-07T17:16:18.101Z,6.30
2023-09-07T17:19:03.670Z,7.00
2023-09-07T17:21:47.084Z,6.50
2023-09-07T17:24:31.621Z,5.70
2023-09-07T17:27:14.901Z,6.40
2023-09-07T17:29:59.318Z,7.60
2023-09-07T17:32:42.417Z,8.20
2023-09-07T17:35:26.011Z,8.00
2023-09-07T17:38:09.110Z,9.20
2023-09-07T17:40:52.585Z,9.90
2023-09-07T17:43:35.499Z,8.80
2023-09-07T17:46:18.338Z,10.90
2023-09-07T17:49:01.453Z,11.80
2023-09-07T17:51:44.515Z,10.20
2023-09-07T17:54:27.937Z,9.90
2023-09-07T17:57:11.146Z,10.20
2023-09-07T17:59:54.170Z,10.00
2023-09-07T18:02:41.464Z,11.20
2023-09-07T18:05:24.678Z,11.80
2023-09-07T18:08:07.646Z,12.00
2023-09-07T18:10:50.630Z,12.60
2023-09-07T18:13:34.034Z,11.70
2023-09-07T18:16:16.908Z,11.70
2023-09-07T18:18:59.811Z,12.10
2023-09-07T18:21:42.696Z,11.40
2023-09-07T18:24:25.958Z,12.40
2023-09-07T18:27:10.720Z,10.80
2023-09-07T18:29:54.508Z,11.70
2023-09-07T18:32:37.554Z,10.80
2023-09-07T18:35:20.850Z,10.40
2023-09-07T18:38:04.259Z,11.60
2023-09-07T18:40:49.549Z,12.00
2023-09-07T18:43:35.588Z,11.30
2023-09-07T18:46:19.037Z,11.10
2023-09-07T18:49:03.287Z,11.70
2023-09-07T18:51:46.239Z,12.50
2023-09-07T18:54:29.257Z,12.90
2023-09-07T18:57:12.289Z,12.00
2023-09-07T18:59:55.455Z,12.40
2023-09-07T19:02:38.441Z,11.30
2023-09-07T19:05:21.539Z,14.90
2023-09-07T19:08:05.160Z,14.30
2023-09-07T19:10:48.346Z,14.30
2023-09-07T19:13:33.844Z,13.60
2023-09-07T19:16:17.704Z,13.80
2023-09-07T19:19:01.005Z,14.40
2023-09-07T19:21:44.630Z,14.40
2023-09-07T19:24:28.585Z,16.70
2023-09-07T19:27:11.575Z,17.20
2023-09-07T19:29:57.381Z,14.70
2023-09-07T19:32:40.759Z,14.80
2023-09-07T19:35:24.637Z,14.70
2023-09-07T19:38:08.920Z,16.00
2023-09-07T19:40:56.476Z,16.00
2023-09-07T19:43:44.151Z,16.50
2023-09-07T19:46:28.166Z,18.00
2023-09-07T19:49:14.274Z,17.70
2023-09-07T19:51:57.165Z,16.40
2023-09-07T19:54:40.132Z,15.60
2023-09-07T19:57:25.339Z,17.00
2023-09-07T20:00:08.874Z,14.40
2023-09-07T20:02:52.145Z,15.10
2023-09-07T20:05:35.515Z,17.40
2023-09-07T20:08:18.366Z,16.10
2023-09-07T20:11:01.395Z,15.60
2023-09-07T20:13:44.449Z,15.20
2023-09-07T20:16:27.587Z,14.50
2023-09-07T20:19:10.953Z,13.50
2023-09-07T20:21:54.003Z,18.20
2023-09-07T20:24:37.033Z,14.50
2023-09-07T20:27:20.047Z,14.50
2023-09-07T20:30:07.230Z,13.60
2023-09-07T20:32:50.436Z,13.70
2023-09-07T20:35:33.412Z,13.70
2023-09-07T20:38:16.453Z,13.80
2023-09-07T20:41:00.629Z,12.30
2023-09-07T20:43:43.491Z,11.10
2023-09-07T20:46:26.333Z,11.20
2023-09-07T20:49:09.379Z,12.10
2023-09-07T20:51:52.580Z,11.50
2023-09-07T20:54:35.465Z,12.30
2023-09-07T20:57:18.524Z,11.00
2023-09-07T21:00:01.483Z,10.80
2023-09-07T21:02:44.778Z,10.50
2023-09-07T21:05:28.582Z,12.30
2023-09-07T21:08:11.664Z,9.30
2023-09-07T21:10:54.993Z,10.10
2023-09-07T21:13:38.308Z,10.90
2023-09-07T21:16:21.347Z,12.00
2023-09-07T21:19:06.575Z,16.40
2023-09-07T21:21:49.569Z,19.70
2023-09-07T21:24:32.671Z,21.30
2023-09-07T21:27:15.791Z,18.60
2023-09-07T21:29:58.865Z,16.30
2023-09-07T21:32:41.970Z,16.00
2023-09-07T21:35:25.045Z,15.70
2023-09-07T21:38:08.112Z,14.30
2023-09-07T21:40:52.111Z,15.20
2023-09-07T21:43:35.601Z,12.10
2023-09-07T21:46:18.707Z,13.50
2023-09-07T21:49:01.844Z,12.60
2023-09-07T21:51:47.227Z,13.00
2023-09-07T21:54:30.267Z,12.60
2023-09-07T21:57:13.176Z,11.70
2023-09-07T21:59:56.384Z,12.70
2023-09-07T22:02:39.445Z,12.50
2023-09-07T22:05:23.833Z,12.10
2023-09-07T22:08:06.788Z,10.90
2023-09-07T22:10:49.893Z,11.30
2023-09-07T22:13:32.830Z,12.40
2023-09-07T22:16:15.905Z,11.60
2023-09-07T22:18:59.044Z,11.70
2023-09-07T22:21:42.191Z,13.20
2023-09-07T22:24:25.228Z,11.30
2023-09-07T22:27:08.614Z,11.80
2023-09-07T22:29:52.259Z,11.90
2023-09-07T22:32:35.320Z,11.50
2023-09-07T22:35:18.720Z,11.90
2023-09-07T22:38:03.432Z,13.60
2023-09-07T22:40:47.257Z,12.60
2023-09-07T22:43:30.498Z,11.70
2023-09-07T22:46:13.750Z,12.30
2023-09-07T22:48:56.816Z,11.50
2023-09-07T22:51:40.589Z,13.30
2023-09-07T22:54:23.539Z,12.40
2023-09-07T22:57:06.496Z,12.30
2023-09-07T22:59:49.694Z,12.70
2023-09-07T23:02:32.537Z,12.40
2023-09-07T23:05:15.536Z,12.90
2023-09-07T23:07:58.997Z,14.10
2023-09-07T23:10:44.360Z,12.20
2023-09-07T23:13:27.463Z,12.00
2023-09-07T23:16:10.427Z,11.80
2023-09-07T23:18:53.565Z,12.30
2023-09-07T23:21:36.885Z,13.20
2023-09-07T23:24:19.920Z,11.50
2023-09-07T23:27:03.918Z,12.30
2023-09-07T23:29:47.419Z,12.80
2023-09-07T23:32:30.322Z,12.00
2023-09-07T23:35:13.281Z,11.10
2023-09-07T23:37:56.399Z,11.50
2023-09-07T23:40:39.251Z,11.90
2023-09-07T23:43:22.316Z,11.30
2023-09-07T23:46:05.383Z,11.60
2023-09-07T23:48:48.565Z,12.00
2023-09-07T23:51:31.538Z,11.60
2023-09-07T23:54:14.463Z,11.80
2023-09-07T23:56:57.283Z,11.90
2023-09-07T23:59:40.198Z,10.90
